• Join FlightAware (Why Join?)
  • Login
  • US Flag 
10:21PM EDT


 

Airport Tracker/Info


-or-


 

Live Flight TrackerFlight Track Log ✈ ASH3751 ✈ 17-Jun-2013 ✈ KORD - KALB

Flight Track Log - Related Links

Times and Time Zones

All times are in EDT time to prevent confusion due to time zone crossing. See the ASH3751 flight status page for this flight to view local times or setup timezone preferences in your user account.

Time Position Orientation Groundspeed Altitude Reporting Facility
EDT Latitude Longitude Course Direction KTS MPH feet Rate Location/Type
11:43PM 42.0333 -87.9167 77° East 221 254 3,400  Level Chicago TRACON
11:45PM 42.1167 -87.8667 24° Northeast 267 307 6,300 2,400 Climbing Chicago TRACON
11:45PM 42.1489 -87.8497 21° North 271 312 7,900 2,520 Climbing Chicago Center
11:46PM 42.5029 -87.7319 20° North  Level FlightAware Approximate
11:46PM 42.2250 -87.8136 19° North 296 341 10,700  Level Chicago Center
11:47PM 42.6373 -87.6897 20° North  Level FlightAware Approximate
11:47PM 42.3242 -87.8006 North 302 348 14,100  Level Chicago Center
11:48PM 42.7714 -87.6447 10° North  Level FlightAware Approximate
11:48PM 42.4019 -87.7536 24° Northeast 310 357 16,800  Level Chicago Center
11:49PM 42.8249 -87.5173 77° East  Level FlightAware Approximate
11:49PM 42.4836 -87.7031 25° Northeast 320 368 19,000  Level Chicago Center
11:50PM 42.5658 -87.6472 27° Northeast 329 379 21,100 1,860 Climbing Chicago Center
11:51PM 42.6553 -87.5900 25° Northeast 347 399 22,900 1,260 Climbing Chicago Center
11:52PM 42.7281 -87.4903 45° Northeast 403 464 23,800 780 Climbing Chicago Center
11:53PM 42.7475 -87.3250 81° East 447 514 24,500 960 Climbing Chicago Center
11:54PM 42.7697 -87.1531 80° East 461 531 25,800 1,080 Climbing Chicago Center
11:55PM 42.7936 -86.9753 80° East 475 547 26,700 960 Climbing Chicago Center
11:57PM 42.8050 -86.7915 85° East  Level FlightAware Approximate
11:57PM 42.8400 -86.6078 85° East 496 571 28,900  Level Chicago Center
11:58PM 42.8681 -86.3814 80° East 507 583 29,900 900 Climbing Chicago Center
12:00AM 42.8906 -86.1911 81° East 514 592 30,800 900 Climbing Chicago Center
12:01AM 42.9136 -85.9975 81° East 527 606 31,800 1,140 Climbing Chicago Center
12:02AM 42.9372 -85.8058 80° East 530 610 33,200 1,080 Climbing Chicago Center
12:03AM 42.9603 -85.6111 81° East 529 609 34,000 900 Climbing Chicago Center
12:04AM 42.9831 -85.4156 81° East 527 606 35,100 960 Climbing Chicago Center
12:05AM 43.0056 -85.2175 81° East 529 609 36,000 600 Climbing Chicago Center
12:07AM 43.0333 -84.7667 85° East 540 621 37,000 300 Climbing Toronto Center
12:08AM 43.0667 -84.5333 79° East 560 644 37,000  Level Toronto Center
12:09AM 43.0833 -84.3333 83° East 560 644 37,000  Level Toronto Center
12:10AM 43.1167 -84.1167 78° East 560 644 37,000  Level Toronto Center
12:11AM 43.1408 -83.9436 79° East 560 644 37,000  Level Cleveland Center
12:13AM 43.1817 -83.5158 82° East 560 644 37,000  Level Cleveland Center
12:14AM 43.2014 -83.3031 83° East 560 644 37,000  Level Cleveland Center
12:15AM 43.2167 -83.0500 85° East 570 656 37,000 420 Level Toronto Center
12:16AM 43.2333 -82.8333 84° East 570 656 37,900 960 Climbing Toronto Center
12:17AM 43.2500 -82.6333 83° East 560 644 39,000 540 Climbing Toronto Center
12:18AM 43.2333 -82.4000 96° East 550 633 39,000  Level Toronto Center
12:19AM 43.2333 -82.2167 90° East 550 633 39,000  Level Toronto Center
12:20AM 43.2167 -81.9833 96° East 550 633 39,000  Level Toronto Center
12:21AM 43.2333 -81.7833 83° East 550 633 39,000  Level Toronto Center
12:22AM 43.2167 -81.5833 96° East 550 633 39,000  Level Toronto Center
12:23AM 43.2000 -81.3500 96° East 550 633 39,000  Level Toronto Center
12:24AM 43.2000 -81.1500 90° East 550 633 39,000  Level Toronto Center
12:25AM 43.1833 -80.9333 96° East 550 633 39,000  Level Toronto Center
12:26AM 43.2000 -80.7333 83° East 550 633 39,000  Level Toronto Center
12:27AM 43.1833 -80.5000 96° East 560 644 39,000  Level Toronto Center
12:28AM 43.1833 -80.3000 90° East 560 644 39,000  Level Toronto Center
12:29AM 43.1667 -80.0833 96° East 560 644 39,000  Level Toronto Center
12:30AM 43.1500 -79.8667 96° East 560 644 39,000  Level Toronto Center
12:31AM 43.1500 -79.6500 90° East 560 644 39,000  Level Toronto Center
12:32AM 43.1333 -79.4500 96° East 570 656 39,000  Level Toronto Center
12:33AM 43.1333 -79.2167 90° East 570 656 39,000  Level Toronto Center
12:34AM 43.1167 -79.0167 96° East 570 656 39,000  Level Toronto Center
12:35AM 43.1167 -78.8167 90° East 570 656 39,000  Level Toronto Center
12:36AM 43.1000 -78.5833 96° East 570 656 39,000  Level Toronto Center
12:37AM 43.0833 -78.3500 96° East 570 656 39,000  Level Toronto Center
12:37AM 43.0869 -78.2436 87° East 566 651 39,000  Level Cleveland Center
12:38AM 43.0739 -78.0308 95° East 571 657 39,000 -60 Level Cleveland Center
12:39AM 43.0628 -77.8183 94° East 571 657 38,900 -600 Descending Cleveland Center
12:40AM 43.0492 -77.6028 95° East 566 651 37,900 -1,020 Descending Cleveland Center
12:42AM 43.0242 -77.1981 95° East 598 688 36,100 -1,140 Descending Boston Center
12:43AM 43.0083 -76.9753 95° East 598 688 34,900 -1,200 Descending Boston Center
12:44AM 42.9919 -76.7553 96° East 592 681 33,700 -1,200 Descending Boston Center
12:45AM 42.9786 -76.5528 95° East 592 681 32,600 -1,200 Descending Boston Center
12:46AM 42.9614 -76.3303 96° East 592 681 31,400 -1,800 Descending Boston Center
12:47AM 42.9558 -76.1142 92° East 585 673 29,000 -2,520 Descending Boston Center
12:48AM 42.9725 -75.9167 83° East 544 626 26,400 -2,760 Descending Boston Center
12:49AM 42.9808 -75.7042 87° East 533 613 23,500 -2,640 Descending Boston Center
12:50AM 42.9611 -75.5214 98° East 504 580 21,200 -2,280 Descending Boston Center
12:51AM 42.9406 -75.3444 99° East 488 562 19,000 -1,980 Descending Boston Center
12:52AM 42.9200 -75.1733 99° East 472 543 17,300 -1,620 Descending Boston Center
12:53AM 42.8986 -75.0081 100° East 457 526 15,800 -1,500 Descending Boston Center
12:54AM 42.8792 -74.8486 99° East 438 504 14,300 -1,500 Descending Boston Center
12:55AM 42.8614 -74.7033 99° East 432 497 12,900 -1,560 Descending Boston Center
12:56AM 42.8472 -74.5753 99° East 412 474 11,600 -960 Descending Boston Center
12:57AM 42.7981 -74.4094 112° Southeast 404 465 11,000 -360 Descending Boston Center
12:58AM 42.7561 -74.3036 118° Southeast 404 465 11,000 -480 Level Boston Center
12:59AM 42.7142 -74.1922 117° Southeast 324 373 10,200 4,140 Descending Boston Center
01:00AM 44.7000 -77.1667 314° West 240 276 20,000 -2,460 Climbing Toronto Center
01:01AM 42.6336 -73.9922 131° Southeast 287 330 5,300 -8,580 Descending Boston Center
01:02AM 42.6183 -73.8958 102° East 244 281 3,800 -1,620 Descending Boston Center
01:03AM 42.6339 -73.8200 74° East 195 224 2,100 -1,200 Descending Boston Center
01:04AM 42.6778 -73.8042 15° North 147 169 1,500 -660 Descending Boston Center
01:05AM 42.7172 -73.8050 359° North 129 148 800 -720 Descending Boston Center